sensor_id;sensor_type;location;lat;lon;timestamp;P1;durP1;ratioP1;P2;durP2;ratioP2
36725;SDS011;44936;52.086;5.150;2022-11-28T00:01:41;4.15;;;2.17;;
36725;SDS011;44936;52.086;5.150;2022-11-28T00:04:10;6.22;;;2.45;;
36725;SDS011;44936;52.086;5.150;2022-11-28T00:06:37;4.85;;;2.25;;
36725;SDS011;44936;52.086;5.150;2022-11-28T00:09:06;5.22;;;1.98;;
36725;SDS011;44936;52.086;5.150;2022-11-28T00:11:36;5.78;;;2.20;;
36725;SDS011;44936;52.086;5.150;2022-11-28T00:14:06;4.85;;;1.90;;
36725;SDS011;44936;52.086;5.150;2022-11-28T00:16:36;5.55;;;2.30;;
36725;SDS011;44936;52.086;5.150;2022-11-28T00:19:02;5.93;;;2.28;;
36725;SDS011;44936;52.086;5.150;2022-11-28T00:21:29;6.45;;;2.25;;
36725;SDS011;44936;52.086;5.150;2022-11-28T00:23:58;5.60;;;2.50;;
36725;SDS011;44936;52.086;5.150;2022-11-28T00:26:30;6.05;;;2.20;;
36725;SDS011;44936;52.086;5.150;2022-11-28T00:28:58;3.42;;;1.70;;
36725;SDS011;44936;52.086;5.150;2022-11-28T00:31:25;8.85;;;2.75;;
36725;SDS011;44936;52.086;5.150;2022-11-28T00:33:52;5.43;;;2.25;;
36725;SDS011;44936;52.086;5.150;2022-11-28T00:36:19;5.18;;;2.13;;
36725;SDS011;44936;52.086;5.150;2022-11-28T00:38:47;6.95;;;2.10;;
36725;SDS011;44936;52.086;5.150;2022-11-28T00:41:31;4.15;;;2.28;;
36725;SDS011;44936;52.086;5.150;2022-11-28T00:44:02;5.78;;;2.25;;
36725;SDS011;44936;52.086;5.150;2022-11-28T00:46:30;11.57;;;2.72;;
36725;SDS011;44936;52.086;5.150;2022-11-28T00:48:56;5.07;;;2.33;;
36725;SDS011;44936;52.086;5.150;2022-11-28T00:51:24;5.32;;;2.17;;
36725;SDS011;44936;52.086;5.150;2022-11-28T00:53:55;6.13;;;2.45;;
36725;SDS011;44936;52.086;5.150;2022-11-28T00:56:23;8.30;;;2.22;;
36725;SDS011;44936;52.086;5.150;2022-11-28T00:59:06;6.30;;;3.00;;
36725;SDS011;44936;52.086;5.150;2022-11-28T01:01:34;6.22;;;2.20;;
36725;SDS011;44936;52.086;5.150;2022-11-28T01:04:04;5.05;;;2.55;;
36725;SDS011;44936;52.086;5.150;2022-11-28T01:06:33;6.90;;;2.70;;
36725;SDS011;44936;52.086;5.150;2022-11-28T01:09:09;8.27;;;3.05;;
36725;SDS011;44936;52.086;5.150;2022-11-28T01:11:53;5.68;;;2.65;;
36725;SDS011;44936;52.086;5.150;2022-11-28T01:14:20;5.78;;;2.28;;
36725;SDS011;44936;52.086;5.150;2022-11-28T01:16:51;5.15;;;2.25;;
36725;SDS011;44936;52.086;5.150;2022-11-28T01:19:25;7.45;;;2.80;;
36725;SDS011;44936;52.086;5.150;2022-11-28T01:21:53;4.95;;;2.20;;
36725;SDS011;44936;52.086;5.150;2022-11-28T01:24:18;5.97;;;2.50;;
36725;SDS011;44936;52.086;5.150;2022-11-28T01:26:44;5.88;;;2.03;;
36725;SDS011;44936;52.086;5.150;2022-11-28T01:29:11;6.03;;;2.60;;
36725;SDS011;44936;52.086;5.150;2022-11-28T01:31:36;5.05;;;2.33;;
36725;SDS011;44936;52.086;5.150;2022-11-28T01:34:02;4.65;;;2.20;;
36725;SDS011;44936;52.086;5.150;2022-11-28T01:36:28;6.47;;;2.60;;
36725;SDS011;44936;52.086;5.150;2022-11-28T01:39:00;6.53;;;2.93;;
36725;SDS011;44936;52.086;5.150;2022-11-28T01:41:26;3.70;;;2.47;;
36725;SDS011;44936;52.086;5.150;2022-11-28T01:43:56;5.30;;;2.78;;
36725;SDS011;44936;52.086;5.150;2022-11-28T01:46:23;6.53;;;2.60;;
36725;SDS011;44936;52.086;5.150;2022-11-28T01:48:55;6.30;;;2.58;;
36725;SDS011;44936;52.086;5.150;2022-11-28T01:51:28;5.30;;;2.25;;
36725;SDS011;44936;52.086;5.150;2022-11-28T01:53:57;5.20;;;2.25;;
36725;SDS011;44936;52.086;5.150;2022-11-28T01:56:31;4.65;;;2.40;;
36725;SDS011;44936;52.086;5.150;2022-11-28T01:59:04;2.92;;;2.03;;
36725;SDS011;44936;52.086;5.150;2022-11-28T02:01:33;2.88;;;2.20;;
36725;SDS011;44936;52.086;5.150;2022-11-28T02:04:02;5.03;;;1.90;;
36725;SDS011;44936;52.086;5.150;2022-11-28T02:06:40;5.82;;;2.45;;
36725;SDS011;44936;52.086;5.150;2022-11-28T02:09:13;5.03;;;2.20;;
36725;SDS011;44936;52.086;5.150;2022-11-28T02:14:46;4.30;;;2.20;;
36725;SDS011;44936;52.086;5.150;2022-11-28T02:17:43;4.38;;;1.75;;
36725;SDS011;44936;52.086;5.150;2022-11-28T02:26:45;3.22;;;1.90;;
36725;SDS011;44936;52.086;5.150;2022-11-28T02:35:22;4.35;;;2.08;;
36725;SDS011;44936;52.086;5.150;2022-11-28T02:43:43;2.58;;;1.88;;
36725;SDS011;44936;52.086;5.150;2022-11-28T02:46:27;6.22;;;2.03;;
36725;SDS011;44936;52.086;5.150;2022-11-28T02:48:59;3.10;;;1.80;;
36725;SDS011;44936;52.086;5.150;2022-11-28T02:56:27;4.40;;;2.15;;
36725;SDS011;44936;52.086;5.150;2022-11-28T02:58:53;4.97;;;2.47;;
36725;SDS011;44936;52.086;5.150;2022-11-28T03:01:26;4.78;;;2.30;;
36725;SDS011;44936;52.086;5.150;2022-11-28T03:06:42;6.93;;;2.92;;
36725;SDS011;44936;52.086;5.150;2022-11-28T03:09:30;4.78;;;2.42;;
36725;SDS011;44936;52.086;5.150;2022-11-28T03:12:05;5.10;;;2.45;;
36725;SDS011;44936;52.086;5.150;2022-11-28T03:14:44;9.20;;;2.45;;
36725;SDS011;44936;52.086;5.150;2022-11-28T03:20:16;4.35;;;2.28;;
36725;SDS011;44936;52.086;5.150;2022-11-28T03:28:37;7.78;;;2.70;;
36725;SDS011;44936;52.086;5.150;2022-11-28T03:31:10;6.68;;;2.80;;
36725;SDS011;44936;52.086;5.150;2022-11-28T03:33:48;6.80;;;3.10;;
36725;SDS011;44936;52.086;5.150;2022-11-28T03:36:22;5.60;;;2.50;;
36725;SDS011;44936;52.086;5.150;2022-11-28T03:38:58;6.13;;;2.83;;
36725;SDS011;44936;52.086;5.150;2022-11-28T03:41:34;7.47;;;2.80;;
36725;SDS011;44936;52.086;5.150;2022-11-28T03:44:02;6.05;;;2.97;;
36725;SDS011;44936;52.086;5.150;2022-11-28T03:46:35;6.05;;;2.83;;
36725;SDS011;44936;52.086;5.150;2022-11-28T03:49:04;8.77;;;3.65;;
36725;SDS011;44936;52.086;5.150;2022-11-28T03:51:40;7.10;;;2.97;;
36725;SDS011;44936;52.086;5.150;2022-11-28T03:54:16;7.45;;;3.10;;
36725;SDS011;44936;52.086;5.150;2022-11-28T03:59:35;7.80;;;3.47;;
36725;SDS011;44936;52.086;5.150;2022-11-28T04:02:13;6.80;;;3.60;;
36725;SDS011;44936;52.086;5.150;2022-11-28T04:04:51;7.28;;;3.33;;
36725;SDS011;44936;52.086;5.150;2022-11-28T04:13:17;6.57;;;3.00;;
36725;SDS011;44936;52.086;5.150;2022-11-28T04:15:55;9.40;;;3.53;;
36725;SDS011;44936;52.086;5.150;2022-11-28T04:23:59;8.52;;;2.83;;
36725;SDS011;44936;52.086;5.150;2022-11-28T04:26:45;5.07;;;2.47;;
36725;SDS011;44936;52.086;5.150;2022-11-28T04:29:19;9.25;;;3.00;;
36725;SDS011;44936;52.086;5.150;2022-11-28T04:31:47;6.68;;;2.80;;
36725;SDS011;44936;52.086;5.150;2022-11-28T04:34:17;6.43;;;3.15;;
36725;SDS011;44936;52.086;5.150;2022-11-28T04:36:46;7.10;;;3.00;;
36725;SDS011;44936;52.086;5.150;2022-11-28T04:39:15;6.55;;;2.92;;
36725;SDS011;44936;52.086;5.150;2022-11-28T04:41:56;7.50;;;2.90;;
36725;SDS011;44936;52.086;5.150;2022-11-28T04:44:35;11.52;;;3.13;;
36725;SDS011;44936;52.086;5.150;2022-11-28T04:49:47;7.03;;;2.70;;
36725;SDS011;44936;52.086;5.150;2022-11-28T04:52:14;7.68;;;3.50;;
36725;SDS011;44936;52.086;5.150;2022-11-28T04:57:37;6.20;;;2.53;;
36725;SDS011;44936;52.086;5.150;2022-11-28T05:00:10;6.63;;;2.70;;
36725;SDS011;44936;52.086;5.150;2022-11-28T05:02:40;6.10;;;2.95;;
36725;SDS011;44936;52.086;5.150;2022-11-28T05:05:12;7.32;;;3.00;;
36725;SDS011;44936;52.086;5.150;2022-11-28T05:07:47;6.18;;;3.10;;
36725;SDS011;44936;52.086;5.150;2022-11-28T05:10:13;6.93;;;3.10;;
36725;SDS011;44936;52.086;5.150;2022-11-28T05:12:41;7.78;;;3.45;;
36725;SDS011;44936;52.086;5.150;2022-11-28T05:15:10;7.05;;;3.33;;
36725;SDS011;44936;52.086;5.150;2022-11-28T05:17:42;8.57;;;3.35;;
36725;SDS011;44936;52.086;5.150;2022-11-28T05:20:08;8.30;;;3.17;;
36725;SDS011;44936;52.086;5.150;2022-11-28T05:22:34;7.82;;;3.30;;
36725;SDS011;44936;52.086;5.150;2022-11-28T05:25:00;10.88;;;3.13;;
36725;SDS011;44936;52.086;5.150;2022-11-28T05:27:25;7.75;;;3.08;;
36725;SDS011;44936;52.086;5.150;2022-11-28T05:29:51;7.70;;;3.55;;
36725;SDS011;44936;52.086;5.150;2022-11-28T05:32:17;9.13;;;3.67;;
36725;SDS011;44936;52.086;5.150;2022-11-28T05:34:43;7.32;;;3.30;;
36725;SDS011;44936;52.086;5.150;2022-11-28T05:37:08;7.45;;;3.22;;
36725;SDS011;44936;52.086;5.150;2022-11-28T05:39:36;6.07;;;2.58;;
36725;SDS011;44936;52.086;5.150;2022-11-28T05:42:02;10.20;;;3.28;;
36725;SDS011;44936;52.086;5.150;2022-11-28T05:44:27;10.50;;;3.90;;
36725;SDS011;44936;52.086;5.150;2022-11-28T05:47:02;7.40;;;3.33;;
36725;SDS011;44936;52.086;5.150;2022-11-28T05:49:27;8.77;;;3.30;;
36725;SDS011;44936;52.086;5.150;2022-11-28T05:51:53;7.57;;;3.20;;
36725;SDS011;44936;52.086;5.150;2022-11-28T05:54:18;7.38;;;3.47;;
36725;SDS011;44936;52.086;5.150;2022-11-28T05:56:48;9.05;;;3.53;;
36725;SDS011;44936;52.086;5.150;2022-11-28T05:59:27;7.70;;;3.15;;
36725;SDS011;44936;52.086;5.150;2022-11-28T06:01:55;7.68;;;3.15;;
36725;SDS011;44936;52.086;5.150;2022-11-28T06:04:21;7.88;;;3.28;;
36725;SDS011;44936;52.086;5.150;2022-11-28T06:06:48;8.80;;;3.40;;
36725;SDS011;44936;52.086;5.150;2022-11-28T06:09:14;8.93;;;3.25;;
36725;SDS011;44936;52.086;5.150;2022-11-28T06:11:41;9.25;;;3.53;;
36725;SDS011;44936;52.086;5.150;2022-11-28T06:14:06;6.93;;;3.08;;
36725;SDS011;44936;52.086;5.150;2022-11-28T06:16:33;8.45;;;3.28;;
36725;SDS011;44936;52.086;5.150;2022-11-28T06:19:00;7.38;;;3.55;;
36725;SDS011;44936;52.086;5.150;2022-11-28T06:21:28;8.23;;;3.38;;
36725;SDS011;44936;52.086;5.150;2022-11-28T06:23:58;7.82;;;3.50;;
36725;SDS011;44936;52.086;5.150;2022-11-28T06:26:24;10.00;;;3.45;;
36725;SDS011;44936;52.086;5.150;2022-11-28T06:28:50;7.10;;;2.97;;
36725;SDS011;44936;52.086;5.150;2022-11-28T06:31:17;5.95;;;2.90;;
36725;SDS011;44936;52.086;5.150;2022-11-28T06:33:48;9.75;;;3.35;;
36725;SDS011;44936;52.086;5.150;2022-11-28T06:36:16;7.30;;;3.35;;
36725;SDS011;44936;52.086;5.150;2022-11-28T06:38:42;8.93;;;3.22;;
36725;SDS011;44936;52.086;5.150;2022-11-28T06:41:09;9.65;;;3.67;;
36725;SDS011;44936;52.086;5.150;2022-11-28T06:43:36;8.57;;;3.45;;
36725;SDS011;44936;52.086;5.150;2022-11-28T06:46:02;11.82;;;4.10;;
36725;SDS011;44936;52.086;5.150;2022-11-28T06:48:28;8.43;;;3.53;;
36725;SDS011;44936;52.086;5.150;2022-11-28T06:51:00;11.75;;;3.88;;
36725;SDS011;44936;52.086;5.150;2022-11-28T06:53:27;8.90;;;3.63;;
36725;SDS011;44936;52.086;5.150;2022-11-28T06:55:53;9.02;;;3.50;;
36725;SDS011;44936;52.086;5.150;2022-11-28T06:58:21;12.43;;;4.85;;
36725;SDS011;44936;52.086;5.150;2022-11-28T07:00:47;10.38;;;3.75;;
36725;SDS011;44936;52.086;5.150;2022-11-28T07:03:12;12.32;;;4.07;;
36725;SDS011;44936;52.086;5.150;2022-11-28T07:05:38;13.40;;;4.28;;
36725;SDS011;44936;52.086;5.150;2022-11-28T07:08:03;8.85;;;3.53;;
36725;SDS011;44936;52.086;5.150;2022-11-28T07:10:30;10.60;;;4.32;;
36725;SDS011;44936;52.086;5.150;2022-11-28T07:13:26;12.77;;;4.13;;
36725;SDS011;44936;52.086;5.150;2022-11-28T07:15:51;11.43;;;3.75;;
36725;SDS011;44936;52.086;5.150;2022-11-28T07:18:17;10.27;;;3.33;;
36725;SDS011;44936;52.086;5.150;2022-11-28T07:20:43;9.55;;;3.67;;
36725;SDS011;44936;52.086;5.150;2022-11-28T07:23:09;13.32;;;4.80;;
36725;SDS011;44936;52.086;5.150;2022-11-28T07:25:34;12.75;;;4.10;;
36725;SDS011;44936;52.086;5.150;2022-11-28T07:28:00;11.00;;;4.38;;
36725;SDS011;44936;52.086;5.150;2022-11-28T07:30:26;12.15;;;4.18;;
36725;SDS011;44936;52.086;5.150;2022-11-28T07:32:51;14.57;;;4.22;;
36725;SDS011;44936;52.086;5.150;2022-11-28T07:35:17;18.27;;;4.88;;
36725;SDS011;44936;52.086;5.150;2022-11-28T07:37:42;11.38;;;3.75;;
36725;SDS011;44936;52.086;5.150;2022-11-28T07:40:08;13.25;;;4.95;;
36725;SDS011;44936;52.086;5.150;2022-11-28T07:42:34;13.65;;;4.18;;
36725;SDS011;44936;52.086;5.150;2022-11-28T07:45:01;11.02;;;3.90;;
36725;SDS011;44936;52.086;5.150;2022-11-28T07:47:27;14.55;;;4.55;;
36725;SDS011;44936;52.086;5.150;2022-11-28T07:49:53;13.13;;;4.07;;
36725;SDS011;44936;52.086;5.150;2022-11-28T07:52:20;12.18;;;4.05;;
36725;SDS011;44936;52.086;5.150;2022-11-28T07:54:49;10.13;;;3.47;;
36725;SDS011;44936;52.086;5.150;2022-11-28T07:57:16;20.08;;;5.13;;
36725;SDS011;44936;52.086;5.150;2022-11-28T07:59:42;13.05;;;4.65;;
36725;SDS011;44936;52.086;5.150;2022-11-28T08:02:11;15.07;;;4.70;;
36725;SDS011;44936;52.086;5.150;2022-11-28T08:04:57;16.55;;;4.72;;
36725;SDS011;44936;52.086;5.150;2022-11-28T08:07:23;11.30;;;3.80;;
36725;SDS011;44936;52.086;5.150;2022-11-28T08:09:52;17.15;;;5.30;;
36725;SDS011;44936;52.086;5.150;2022-11-28T08:12:17;15.43;;;4.90;;
36725;SDS011;44936;52.086;5.150;2022-11-28T08:14:45;12.23;;;4.20;;
36725;SDS011;44936;52.086;5.150;2022-11-28T08:17:10;14.35;;;4.38;;
36725;SDS011;44936;52.086;5.150;2022-11-28T08:19:36;19.13;;;4.93;;
36725;SDS011;44936;52.086;5.150;2022-11-28T08:22:01;15.35;;;4.88;;
36725;SDS011;44936;52.086;5.150;2022-11-28T08:24:31;15.13;;;4.40;;
36725;SDS011;44936;52.086;5.150;2022-11-28T08:27:21;13.43;;;5.03;;
36725;SDS011;44936;52.086;5.150;2022-11-28T08:29:46;13.88;;;4.55;;
36725;SDS011;44936;52.086;5.150;2022-11-28T08:32:12;16.58;;;5.25;;
36725;SDS011;44936;52.086;5.150;2022-11-28T08:34:37;15.18;;;4.75;;
36725;SDS011;44936;52.086;5.150;2022-11-28T08:37:06;14.13;;;4.38;;
36725;SDS011;44936;52.086;5.150;2022-11-28T08:39:31;17.45;;;5.60;;
36725;SDS011;44936;52.086;5.150;2022-11-28T08:41:59;18.55;;;5.80;;
36725;SDS011;44936;52.086;5.150;2022-11-28T08:44:25;20.25;;;5.00;;
36725;SDS011;44936;52.086;5.150;2022-11-28T08:46:51;19.30;;;4.75;;
36725;SDS011;44936;52.086;5.150;2022-11-28T08:49:20;20.42;;;5.70;;
36725;SDS011;44936;52.086;5.150;2022-11-28T08:51:49;24.65;;;6.22;;
36725;SDS011;44936;52.086;5.150;2022-11-28T08:54:16;22.85;;;6.32;;
36725;SDS011;44936;52.086;5.150;2022-11-28T08:56:46;20.13;;;5.25;;
36725;SDS011;44936;52.086;5.150;2022-11-28T08:59:15;18.48;;;5.55;;
36725;SDS011;44936;52.086;5.150;2022-11-28T09:01:40;23.70;;;5.63;;
36725;SDS011;44936;52.086;5.150;2022-11-28T09:04:13;24.13;;;7.65;;
36725;SDS011;44936;52.086;5.150;2022-11-28T09:06:39;18.60;;;5.35;;
36725;SDS011;44936;52.086;5.150;2022-11-28T09:09:05;18.55;;;5.80;;
36725;SDS011;44936;52.086;5.150;2022-11-28T09:11:32;22.17;;;5.68;;
36725;SDS011;44936;52.086;5.150;2022-11-28T09:45:18;25.13;;;6.05;;
36725;SDS011;44936;52.086;5.150;2022-11-28T10:05:19;24.70;;;6.45;;
36725;SDS011;44936;52.086;5.150;2022-11-28T11:00:22;29.80;;;6.40;;
36725;SDS011;44936;52.086;5.150;2022-11-28T11:03:00;16.80;;;4.78;;
36725;SDS011;44936;52.086;5.150;2022-11-28T11:05:31;21.35;;;5.80;;
36725;SDS011;44936;52.086;5.150;2022-11-28T11:13:28;17.98;;;4.57;;
36725;SDS011;44936;52.086;5.150;2022-11-28T11:16:08;16.13;;;4.70;;
36725;SDS011;44936;52.086;5.150;2022-11-28T11:18:54;15.73;;;4.10;;
36725;SDS011;44936;52.086;5.150;2022-11-28T11:21:25;19.63;;;5.13;;
36725;SDS011;44936;52.086;5.150;2022-11-28T11:32:05;14.07;;;4.13;;
36725;SDS011;44936;52.086;5.150;2022-11-28T11:34:51;14.68;;;4.57;;
36725;SDS011;44936;52.086;5.150;2022-11-28T11:39:50;19.45;;;5.28;;
36725;SDS011;44936;52.086;5.150;2022-11-28T11:42:21;13.02;;;4.50;;
36725;SDS011;44936;52.086;5.150;2022-11-28T11:45:33;15.15;;;4.50;;
36725;SDS011;44936;52.086;5.150;2022-11-28T11:48:00;14.63;;;4.80;;
36725;SDS011;44936;52.086;5.150;2022-11-28T11:50:30;16.13;;;5.00;;
36725;SDS011;44936;52.086;5.150;2022-11-28T11:55:57;14.90;;;4.28;;
36725;SDS011;44936;52.086;5.150;2022-11-28T11:58:48;17.95;;;5.28;;
36725;SDS011;44936;52.086;5.150;2022-11-28T12:01:19;17.38;;;4.82;;
36725;SDS011;44936;52.086;5.150;2022-11-28T12:07:08;19.35;;;5.15;;
36725;SDS011;44936;52.086;5.150;2022-11-28T12:10:05;18.73;;;4.82;;
36725;SDS011;44936;52.086;5.150;2022-11-28T12:12:58;16.40;;;5.03;;
36725;SDS011;44936;52.086;5.150;2022-11-28T12:15:37;19.02;;;5.60;;
36725;SDS011;44936;52.086;5.150;2022-11-28T12:23:44;18.63;;;5.28;;
36725;SDS011;44936;52.086;5.150;2022-11-28T12:36:04;18.40;;;5.15;;
36725;SDS011;44936;52.086;5.150;2022-11-28T12:45:05;13.10;;;4.55;;
36725;SDS011;44936;52.086;5.150;2022-11-28T12:48:16;15.48;;;4.53;;
36725;SDS011;44936;52.086;5.150;2022-11-28T12:51:11;19.65;;;4.72;;
36725;SDS011;44936;52.086;5.150;2022-11-28T12:57:15;17.98;;;4.93;;
36725;SDS011;44936;52.086;5.150;2022-11-28T13:03:06;25.33;;;6.13;;
36725;SDS011;44936;52.086;5.150;2022-11-28T13:09:16;17.20;;;4.65;;
36725;SDS011;44936;52.086;5.150;2022-11-28T13:12:29;17.45;;;4.75;;
36725;SDS011;44936;52.086;5.150;2022-11-28T13:15:19;12.32;;;4.15;;
36725;SDS011;44936;52.086;5.150;2022-11-28T13:18:20;27.17;;;4.97;;
36725;SDS011;44936;52.086;5.150;2022-11-28T13:27:38;14.05;;;4.47;;
36725;SDS011;44936;52.086;5.150;2022-11-28T13:30:30;16.73;;;4.53;;
36725;SDS011;44936;52.086;5.150;2022-11-28T13:35:48;17.25;;;4.53;;
36725;SDS011;44936;52.086;5.150;2022-11-28T13:43:36;18.95;;;4.75;;
36725;SDS011;44936;52.086;5.150;2022-11-28T13:46:20;20.92;;;4.90;;
36725;SDS011;44936;52.086;5.150;2022-11-28T13:51:28;14.38;;;4.35;;
36725;SDS011;44936;52.086;5.150;2022-11-28T13:57:10;21.67;;;4.80;;
36725;SDS011;44936;52.086;5.150;2022-11-28T14:00:18;24.35;;;5.60;;
36725;SDS011;44936;52.086;5.150;2022-11-28T14:03:15;20.63;;;4.78;;
36725;SDS011;44936;52.086;5.150;2022-11-28T14:05:43;14.95;;;4.63;;
36725;SDS011;44936;52.086;5.150;2022-11-28T14:16:59;16.10;;;4.30;;
36725;SDS011;44936;52.086;5.150;2022-11-28T14:25:48;17.73;;;4.68;;
36725;SDS011;44936;52.086;5.150;2022-11-28T14:34:34;19.35;;;5.28;;
36725;SDS011;44936;52.086;5.150;2022-11-28T14:39:48;24.70;;;4.57;;
36725;SDS011;44936;52.086;5.150;2022-11-28T14:44:53;15.82;;;4.35;;
36725;SDS011;44936;52.086;5.150;2022-11-28T14:47:35;21.10;;;5.35;;
36725;SDS011;44936;52.086;5.150;2022-11-28T14:52:40;18.92;;;4.65;;
36725;SDS011;44936;52.086;5.150;2022-11-28T14:55:22;15.00;;;4.70;;
36725;SDS011;44936;52.086;5.150;2022-11-28T14:58:00;15.93;;;4.53;;
36725;SDS011;44936;52.086;5.150;2022-11-28T15:01:19;15.07;;;4.25;;
36725;SDS011;44936;52.086;5.150;2022-11-28T15:04:05;14.70;;;4.40;;
36725;SDS011;44936;52.086;5.150;2022-11-28T15:06:53;15.70;;;4.35;;
36725;SDS011;44936;52.086;5.150;2022-11-28T15:09:53;16.55;;;4.40;;
36725;SDS011;44936;52.086;5.150;2022-11-28T15:12:22;13.45;;;4.15;;
36725;SDS011;44936;52.086;5.150;2022-11-28T15:15:10;12.30;;;4.50;;
36725;SDS011;44936;52.086;5.150;2022-11-28T15:17:44;12.63;;;4.50;;
36725;SDS011;44936;52.086;5.150;2022-11-28T15:20:24;14.38;;;4.32;;
36725;SDS011;44936;52.086;5.150;2022-11-28T15:23:05;16.60;;;4.28;;
36725;SDS011;44936;52.086;5.150;2022-11-28T15:29:59;13.52;;;3.75;;
36725;SDS011;44936;52.086;5.150;2022-11-28T15:33:08;17.55;;;4.20;;
36725;SDS011;44936;52.086;5.150;2022-11-28T15:35:53;24.08;;;5.30;;
36725;SDS011;44936;52.086;5.150;2022-11-28T16:03:50;17.65;;;4.20;;
36725;SDS011;44936;52.086;5.150;2022-11-28T16:06:35;17.73;;;5.07;;
36725;SDS011;44936;52.086;5.150;2022-11-28T16:11:52;18.65;;;4.80;;
36725;SDS011;44936;52.086;5.150;2022-11-28T16:19:51;19.13;;;4.80;;
36725;SDS011;44936;52.086;5.150;2022-11-28T16:22:21;18.60;;;4.53;;
36725;SDS011;44936;52.086;5.150;2022-11-28T16:24:52;25.92;;;5.05;;
36725;SDS011;44936;52.086;5.150;2022-11-28T16:27:33;21.50;;;4.88;;
36725;SDS011;44936;52.086;5.150;2022-11-28T16:30:43;21.88;;;5.07;;
36725;SDS011;44936;52.086;5.150;2022-11-28T16:32:53;21.25;;;4.85;;
36725;SDS011;44936;52.086;5.150;2022-11-28T16:35:34;27.63;;;5.85;;
36725;SDS011;44936;52.086;5.150;2022-11-28T16:38:20;19.73;;;5.07;;
36725;SDS011;44936;52.086;5.150;2022-11-28T16:40:51;17.98;;;5.70;;
36725;SDS011;44936;52.086;5.150;2022-11-28T16:43:36;22.00;;;5.28;;
36725;SDS011;44936;52.086;5.150;2022-11-28T16:46:05;21.52;;;5.28;;
36725;SDS011;44936;52.086;5.150;2022-11-28T16:48:51;19.85;;;4.93;;
36725;SDS011;44936;52.086;5.150;2022-11-28T16:51:28;18.00;;;5.18;;
36725;SDS011;44936;52.086;5.150;2022-11-28T16:53:58;18.02;;;4.95;;
36725;SDS011;44936;52.086;5.150;2022-11-28T16:59:00;25.40;;;5.32;;
36725;SDS011;44936;52.086;5.150;2022-11-28T17:01:47;16.38;;;5.70;;
36725;SDS011;44936;52.086;5.150;2022-11-28T17:06:54;20.67;;;5.63;;
36725;SDS011;44936;52.086;5.150;2022-11-28T17:09:48;20.73;;;5.03;;
36725;SDS011;44936;52.086;5.150;2022-11-28T17:14:53;18.65;;;5.65;;
36725;SDS011;44936;52.086;5.150;2022-11-28T17:17:20;25.83;;;6.78;;
36725;SDS011;44936;52.086;5.150;2022-11-28T17:19:50;20.95;;;5.57;;
36725;SDS011;44936;52.086;5.150;2022-11-28T17:22:20;16.63;;;4.95;;
36725;SDS011;44936;52.086;5.150;2022-11-28T17:24:55;16.98;;;4.85;;
36725;SDS011;44936;52.086;5.150;2022-11-28T17:27:29;18.98;;;4.90;;
36725;SDS011;44936;52.086;5.150;2022-11-28T17:29:54;15.35;;;4.75;;
36725;SDS011;44936;52.086;5.150;2022-11-28T17:32:23;15.07;;;4.18;;
36725;SDS011;44936;52.086;5.150;2022-11-28T17:34:50;25.27;;;5.47;;
36725;SDS011;44936;52.086;5.150;2022-11-28T17:37:16;17.33;;;5.20;;
36725;SDS011;44936;52.086;5.150;2022-11-28T17:39:44;19.70;;;5.00;;
36725;SDS011;44936;52.086;5.150;2022-11-28T17:42:29;15.25;;;4.68;;
36725;SDS011;44936;52.086;5.150;2022-11-28T17:44:55;16.83;;;4.70;;
36725;SDS011;44936;52.086;5.150;2022-11-28T17:47:21;15.50;;;4.82;;
36725;SDS011;44936;52.086;5.150;2022-11-28T17:49:49;15.48;;;3.95;;
36725;SDS011;44936;52.086;5.150;2022-11-28T17:52:15;13.75;;;4.85;;
36725;SDS011;44936;52.086;5.150;2022-11-28T17:54:54;17.35;;;4.68;;
36725;SDS011;44936;52.086;5.150;2022-11-28T17:57:22;16.95;;;5.30;;
36725;SDS011;44936;52.086;5.150;2022-11-28T17:59:50;16.35;;;5.10;;
36725;SDS011;44936;52.086;5.150;2022-11-28T18:02:17;15.73;;;4.07;;
36725;SDS011;44936;52.086;5.150;2022-11-28T18:04:43;17.95;;;5.15;;
36725;SDS011;44936;52.086;5.150;2022-11-28T18:07:08;19.02;;;4.65;;
36725;SDS011;44936;52.086;5.150;2022-11-28T18:09:34;17.83;;;5.20;;
36725;SDS011;44936;52.086;5.150;2022-11-28T18:11:59;18.45;;;5.60;;
36725;SDS011;44936;52.086;5.150;2022-11-28T18:14:25;21.08;;;5.50;;
36725;SDS011;44936;52.086;5.150;2022-11-28T18:16:53;17.77;;;4.93;;
36725;SDS011;44936;52.086;5.150;2022-11-28T18:19:18;23.70;;;5.72;;
36725;SDS011;44936;52.086;5.150;2022-11-28T18:21:44;16.75;;;4.45;;
36725;SDS011;44936;52.086;5.150;2022-11-28T18:24:09;16.33;;;5.15;;
36725;SDS011;44936;52.086;5.150;2022-11-28T18:26:35;15.85;;;4.82;;
36725;SDS011;44936;52.086;5.150;2022-11-28T18:29:03;14.00;;;4.30;;
36725;SDS011;44936;52.086;5.150;2022-11-28T18:31:31;16.30;;;5.13;;
36725;SDS011;44936;52.086;5.150;2022-11-28T18:34:01;16.50;;;5.53;;
36725;SDS011;44936;52.086;5.150;2022-11-28T18:36:29;17.50;;;4.95;;
36725;SDS011;44936;52.086;5.150;2022-11-28T18:39:00;19.17;;;4.82;;
36725;SDS011;44936;52.086;5.150;2022-11-28T18:41:27;19.80;;;6.40;;
36725;SDS011;44936;52.086;5.150;2022-11-28T18:43:57;19.58;;;5.03;;
36725;SDS011;44936;52.086;5.150;2022-11-28T18:46:26;17.48;;;4.97;;
36725;SDS011;44936;52.086;5.150;2022-11-28T18:48:53;24.80;;;6.85;;
36725;SDS011;44936;52.086;5.150;2022-11-28T18:51:21;29.02;;;7.30;;
36725;SDS011;44936;52.086;5.150;2022-11-28T18:53:54;23.42;;;5.50;;
36725;SDS011;44936;52.086;5.150;2022-11-28T18:56:21;28.15;;;7.28;;
36725;SDS011;44936;52.086;5.150;2022-11-28T18:58:47;20.25;;;6.63;;
36725;SDS011;44936;52.086;5.150;2022-11-28T19:03:54;23.52;;;6.10;;
36725;SDS011;44936;52.086;5.150;2022-11-28T19:06:25;27.15;;;6.80;;
36725;SDS011;44936;52.086;5.150;2022-11-28T19:08:52;18.70;;;5.82;;
36725;SDS011;44936;52.086;5.150;2022-11-28T19:11:28;23.10;;;5.78;;
36725;SDS011;44936;52.086;5.150;2022-11-28T19:14:13;18.13;;;4.85;;
36725;SDS011;44936;52.086;5.150;2022-11-28T19:16:43;17.38;;;5.22;;
36725;SDS011;44936;52.086;5.150;2022-11-28T19:19:19;22.23;;;5.50;;
36725;SDS011;44936;52.086;5.150;2022-11-28T19:21:46;19.73;;;5.78;;
36725;SDS011;44936;52.086;5.150;2022-11-28T19:24:16;17.73;;;5.15;;
36725;SDS011;44936;52.086;5.150;2022-11-28T19:26:51;20.25;;;6.28;;
36725;SDS011;44936;52.086;5.150;2022-11-28T19:29:19;21.02;;;5.88;;
36725;SDS011;44936;52.086;5.150;2022-11-28T19:31:45;17.10;;;5.97;;
36725;SDS011;44936;52.086;5.150;2022-11-28T19:34:11;22.67;;;5.57;;
36725;SDS011;44936;52.086;5.150;2022-11-28T19:36:43;19.55;;;5.22;;
36725;SDS011;44936;52.086;5.150;2022-11-28T19:41:46;18.15;;;5.70;;
36725;SDS011;44936;52.086;5.150;2022-11-28T19:44:16;20.08;;;5.43;;
36725;SDS011;44936;52.086;5.150;2022-11-28T19:46:48;23.88;;;6.25;;
36725;SDS011;44936;52.086;5.150;2022-11-28T19:49:16;21.40;;;6.40;;
36725;SDS011;44936;52.086;5.150;2022-11-28T19:51:43;24.20;;;6.65;;
36725;SDS011;44936;52.086;5.150;2022-11-28T19:54:12;29.08;;;7.60;;
36725;SDS011;44936;52.086;5.150;2022-11-28T19:56:38;28.00;;;6.75;;
36725;SDS011;44936;52.086;5.150;2022-11-28T19:59:04;25.05;;;6.63;;
36725;SDS011;44936;52.086;5.150;2022-11-28T20:01:29;31.55;;;7.88;;
36725;SDS011;44936;52.086;5.150;2022-11-28T20:03:56;18.35;;;5.63;;
36725;SDS011;44936;52.086;5.150;2022-11-28T20:06:24;22.80;;;5.72;;
36725;SDS011;44936;52.086;5.150;2022-11-28T20:08:54;21.17;;;6.07;;
36725;SDS011;44936;52.086;5.150;2022-11-28T20:11:22;21.52;;;6.03;;
36725;SDS011;44936;52.086;5.150;2022-11-28T20:14:00;20.73;;;5.78;;
36725;SDS011;44936;52.086;5.150;2022-11-28T20:16:30;23.13;;;5.88;;
36725;SDS011;44936;52.086;5.150;2022-11-28T20:18:56;24.35;;;6.38;;
36725;SDS011;44936;52.086;5.150;2022-11-28T20:21:24;22.85;;;6.10;;
36725;SDS011;44936;52.086;5.150;2022-11-28T20:23:52;33.20;;;6.97;;